Time,TemperatureF,DewpointF,PressureIn,WindDirection,WindDirectionDegrees,WindSpeedMPH,WindSpeedGustMPH,Humidity,HourlyPrecipIn,Conditions,Clouds,dailyrainin,SoftwareType,DateUTC
2013-02-07 00:00:00,28.0,7.9,30.28,NE,45,1.1,0.0,42,0.00,RA,,0.00,WeatherDisplay:10.37,2013-02-07 05:00:00,
2013-02-07 00:05:00,27.7,7.5,30.28,WSW,248,0.0,0.0,42,0.00,RA,,0.00,WeatherDisplay:10.37,2013-02-07 05:05:00,
2013-02-07 00:10:00,27.7,7.5,30.29,WSW,248,0.0,0.0,42,0.00,CLR,,0.00,WeatherDisplay:10.37,2013-02-07 05:10:00,
2013-02-07 00:15:00,27.1,7.6,30.29,South,180,0.0,0.5,43,0.00,CLR,,0.00,WeatherDisplay:10.37,2013-02-07 05:15:00,
2013-02-07 00:20:00,26.8,7.8,30.29,SSW,202,0.0,0.0,44,0.00,CLR,,0.00,WeatherDisplay:10.37,2013-02-07 05:20:00,
2013-02-07 00:25:00,26.2,7.8,30.29,SE,135,0.0,0.0,45,0.00,CLR,,0.00,WeatherDisplay:10.37,2013-02-07 05:25:00,
2013-02-07 00:30:00,25.9,7.4,30.29,SE,135,0.0,0.0,45,0.00,CLR,,0.00,WeatherDisplay:10.37,2013-02-07 05:30:00,
2013-02-07 00:35:00,25.5,7.6,30.29,South,180,0.0,0.0,46,0.00,CLR,,0.00,WeatherDisplay:10.37,2013-02-07 05:35:00,
2013-02-07 00:40:00,25.2,7.7,30.29,South,180,0.0,0.0,47,0.00,CLR,,0.00,WeatherDisplay:10.37,2013-02-07 05:40:00,
2013-02-07 00:45:00,24.8,7.4,30.29,South,180,0.0,0.0,47,0.00,CLR,,0.00,WeatherDisplay:10.37,2013-02-07 05:45:00,
2013-02-07 00:50:00,24.6,7.7,30.29,South,180,0.0,0.0,48,0.00,CLR,,0.00,WeatherDisplay:10.37,2013-02-07 05:50:00,
2013-02-07 00:55:00,24.4,7.5,30.29,ESE,112,0.0,0.0,48,0.00,CLR,,0.00,WeatherDisplay:10.37,2013-02-07 05:55:00,
2013-02-07 01:00:00,24.3,7.4,30.29,ESE,112,0.0,0.0,48,0.00,CLR,,0.00,WeatherDisplay:10.37,2013-02-07 06:00:00,
2013-02-07 01:05:00,24.1,7.7,30.29,ENE,68,0.0,0.2,49,0.00,CLR,,0.00,WeatherDisplay:10.37,2013-02-07 06:05:00,
2013-02-07 01:10:00,24.1,7.7,30.29,ENE,68,0.0,0.0,49,0.00,CLR,,0.00,WeatherDisplay:10.37,2013-02-07 06:10:00,
2013-02-07 01:15:00,24.3,7.8,30.29,ENE,68,0.0,0.0,49,0.00,CLR,,0.00,WeatherDisplay:10.37,2013-02-07 06:15:00,
2013-02-07 01:20:00,24.1,7.7,30.29,ENE,68,0.2,0.2,49,0.00,CLR,,0.00,WeatherDisplay:10.37,2013-02-07 06:20:00,
2013-02-07 01:25:00,24.1,7.7,30.29,ENE,68,0.0,0.0,49,0.00,CLR,,0.00,WeatherDisplay:10.37,2013-02-07 06:25:00,
2013-02-07 01:30:00,24.1,8.1,30.29,ENE,68,0.0,0.0,50,0.00,CLR,,0.00,WeatherDisplay:10.37,2013-02-07 06:30:00,
2013-02-07 01:35:00,23.7,8.2,30.29,ENE,68,0.0,0.0,51,0.00,CLR,,0.00,WeatherDisplay:10.37,2013-02-07 06:35:00,
2013-02-07 01:40:00,23.4,7.9,30.30,ENE,68,0.2,0.2,51,0.00,CLR,,0.00,WeatherDisplay:10.37,2013-02-07 06:40:00,
2013-02-07 01:45:00,23.2,8.1,30.31,ENE,68,0.5,0.5,52,0.00,CLR,,0.00,WeatherDisplay:10.37,2013-02-07 06:45:00,
2013-02-07 01:50:00,23.0,8.0,30.31,ENE,68,0.0,0.0,52,0.00,CLR,,0.00,WeatherDisplay:10.37,2013-02-07 06:50:00,
2013-02-07 01:55:00,23.2,8.6,30.31,ENE,68,0.0,0.0,53,0.00,CLR,,0.00,WeatherDisplay:10.37,2013-02-07 06:55:00,
2013-02-07 02:00:00,23.0,8.8,30.31,ENE,68,0.0,0.0,54,0.00,CLR,,0.00,WeatherDisplay:10.37,2013-02-07 07:00:00,
2013-02-07 02:05:00,22.8,8.6,30.31,ENE,68,0.0,0.0,54,0.00,CLR,,0.00,WeatherDisplay:10.37,2013-02-07 07:05:00,
2013-02-07 02:10:00,22.6,8.5,30.31,NE,45,0.0,0.0,54,0.00,CLR,,0.00,WeatherDisplay:10.37,2013-02-07 07:10:00,
2013-02-07 02:15:00,22.8,8.6,30.31,NE,45,0.0,0.0,54,0.00,CLR,,0.00,WeatherDisplay:10.37,2013-02-07 07:15:00,
2013-02-07 02:20:00,23.2,9.0,30.31,North,0,0.0,0.0,54,0.00,CLR,,0.00,WeatherDisplay:10.37,2013-02-07 07:20:00,
2013-02-07 02:25:00,23.4,8.7,30.31,North,0,0.0,0.0,53,0.00,CLR,,0.00,WeatherDisplay:10.37,2013-02-07 07:25:00,
2013-02-07 02:30:00,23.4,8.7,30.31,North,0,0.0,0.0,53,0.00,CLR,,0.00,WeatherDisplay:10.37,2013-02-07 07:30:00,
2013-02-07 02:35:00,23.4,8.7,30.31,North,0,0.0,0.0,53,0.00,CLR,,0.00,WeatherDisplay:10.37,2013-02-07 07:35:00,
2013-02-07 02:40:00,23.2,8.6,30.30,North,0,0.0,0.0,53,0.00,CLR,,0.00,WeatherDisplay:10.37,2013-02-07 07:40:00,
2013-02-07 02:45:00,22.8,8.6,30.30,North,0,0.0,0.0,54,0.00,CLR,,0.00,WeatherDisplay:10.37,2013-02-07 07:45:00,
2013-02-07 02:50:00,22.6,8.5,30.30,North,0,0.0,0.0,54,0.00,CLR,,0.00,WeatherDisplay:10.37,2013-02-07 07:50:00,
2013-02-07 02:55:00,22.5,8.7,30.31,North,0,0.0,0.0,55,0.00,CLR,,0.00,WeatherDisplay:10.37,2013-02-07 07:55:00,
2013-02-07 03:00:00,22.3,8.5,30.31,North,0,0.0,0.0,55,0.00,CLR,,0.00,WeatherDisplay:10.37,2013-02-07 08:00:00,
2013-02-07 03:05:00,22.1,8.4,30.31,North,0,0.0,0.0,55,0.00,CLR,,0.00,WeatherDisplay:10.37,2013-02-07 08:05:00,
2013-02-07 03:10:00,21.9,8.6,30.32,East,90,0.0,0.0,56,0.00,CLR,,0.00,WeatherDisplay:10.37,2013-02-07 08:10:00,
2013-02-07 03:15:00,21.9,8.6,30.33,East,90,0.0,0.0,56,0.00,CLR,,0.00,WeatherDisplay:10.37,2013-02-07 08:15:00,
2013-02-07 03:20:00,21.9,8.6,30.33,East,90,0.0,0.0,56,0.00,CLR,,0.00,WeatherDisplay:10.37,2013-02-07 08:20:00,
2013-02-07 03:25:00,22.1,9.2,30.32,East,90,0.0,0.0,57,0.00,CLR,,0.00,WeatherDisplay:10.37,2013-02-07 08:25:00,
2013-02-07 03:30:00,22.3,8.9,30.32,NE,45,0.0,0.0,56,0.00,CLR,,0.00,WeatherDisplay:10.37,2013-02-07 08:30:00,
2013-02-07 03:35:00,22.3,9.3,30.32,NE,45,0.0,0.0,57,0.00,CLR,,0.00,WeatherDisplay:10.37,2013-02-07 08:35:00,
2013-02-07 03:40:00,22.1,9.2,30.33,NE,45,0.0,0.0,57,0.00,CLR,,0.00,WeatherDisplay:10.37,2013-02-07 08:40:00,
2013-02-07 03:45:00,21.9,9.4,30.33,ENE,68,0.0,0.0,58,0.00,CLR,,0.00,WeatherDisplay:10.37,2013-02-07 08:45:00,
2013-02-07 03:50:00,21.7,9.2,30.33,ENE,68,0.0,0.0,58,0.00,CLR,,0.00,WeatherDisplay:10.37,2013-02-07 08:50:00,
2013-02-07 03:55:00,21.7,9.2,30.33,ENE,68,0.0,0.0,58,0.00,CLR,,0.00,WeatherDisplay:10.37,2013-02-07 08:55:00,
2013-02-07 04:00:00,21.7,9.2,30.33,ENE,68,0.0,0.0,58,0.00,CLR,,0.00,WeatherDisplay:10.37,2013-02-07 09:00:00,
2013-02-07 04:05:00,21.9,9.8,30.33,ENE,68,0.0,0.0,59,0.00,CLR,,0.00,WeatherDisplay:10.37,2013-02-07 09:05:00,
2013-02-07 04:10:00,21.9,9.8,30.33,ENE,68,0.0,0.0,59,0.00,CLR,,0.00,WeatherDisplay:10.37,2013-02-07 09:10:00,
2013-02-07 04:15:00,21.9,9.8,30.33,ENE,68,0.0,0.0,59,0.00,CLR,,0.00,WeatherDisplay:10.37,2013-02-07 09:15:00,
2013-02-07 04:20:00,22.1,9.9,30.33,ENE,68,0.0,0.0,59,0.00,CLR,,0.00,WeatherDisplay:10.37,2013-02-07 09:20:00,
2013-02-07 04:25:00,22.1,9.9,30.34,ENE,68,0.0,0.0,59,0.00,CLR,,0.00,WeatherDisplay:10.37,2013-02-07 09:25:00,
2013-02-07 04:30:00,21.9,9.8,30.34,ENE,68,0.0,0.0,59,0.00,CLR,,0.00,WeatherDisplay:10.37,2013-02-07 09:30:00,
2013-02-07 04:35:00,21.7,9.6,30.34,ENE,68,0.0,0.0,59,0.00,CLR,,0.00,WeatherDisplay:10.37,2013-02-07 09:35:00,
2013-02-07 04:40:00,21.4,9.6,30.34,ENE,68,0.0,0.0,60,0.00,CLR,,0.00,WeatherDisplay:10.37,2013-02-07 09:40:00,
2013-02-07 04:45:00,21.4,9.6,30.34,ENE,68,0.0,0.0,60,0.00,CLR,,0.00,WeatherDisplay:10.37,2013-02-07 09:45:00,
2013-02-07 04:50:00,21.4,9.6,30.35,ENE,68,0.0,0.0,60,0.00,CLR,,0.00,WeatherDisplay:10.37,2013-02-07 09:50:00,
2013-02-07 04:55:00,21.2,9.8,30.35,ENE,68,0.0,0.0,61,0.00,CLR,,0.00,WeatherDisplay:10.37,2013-02-07 09:55:00,
2013-02-07 05:00:00,21.0,9.7,30.35,ENE,68,0.0,0.0,61,0.00,CLR,,0.00,WeatherDisplay:10.37,2013-02-07 10:00:00,
2013-02-07 05:05:00,20.8,9.5,30.35,ENE,68,0.0,0.0,61,0.00,CLR,,0.00,WeatherDisplay:10.37,2013-02-07 10:05:00,
2013-02-07 05:10:00,21.0,10.0,30.35,ENE,68,0.0,0.0,62,0.00,CLR,,0.00,WeatherDisplay:10.37,2013-02-07 10:10:00,
2013-02-07 05:15:00,20.8,9.9,30.36,ENE,68,0.0,0.0,62,0.00,CLR,,0.00,WeatherDisplay:10.37,2013-02-07 10:15:00,
2013-02-07 05:20:00,20.7,9.7,30.36,ENE,68,0.0,0.0,62,0.00,CLR,,0.00,WeatherDisplay:10.37,2013-02-07 10:20:00,
2013-02-07 05:25:00,21.0,10.4,30.36,ENE,68,0.0,0.0,63,0.00,CLR,,0.00,WeatherDisplay:10.37,2013-02-07 10:25:00,
2013-02-07 05:30:00,21.2,10.2,30.36,ENE,68,0.0,0.0,62,0.00,CLR,,0.00,WeatherDisplay:10.37,2013-02-07 10:30:00,
2013-02-07 05:35:00,21.2,10.2,30.36,ENE,68,0.0,0.0,62,0.00,CLR,,0.00,WeatherDisplay:10.37,2013-02-07 10:35:00,
2013-02-07 05:40:00,21.2,10.6,30.36,ENE,68,0.0,0.0,63,0.00,CLR,,0.00,WeatherDisplay:10.37,2013-02-07 10:40:00,
2013-02-07 05:45:00,21.0,10.4,30.36,ENE,68,0.0,0.0,63,0.00,CLR,,0.00,WeatherDisplay:10.37,2013-02-07 10:45:00,
2013-02-07 05:50:00,21.0,10.4,30.36,ENE,68,0.0,0.0,63,0.00,CLR,,0.00,WeatherDisplay:10.37,2013-02-07 10:50:00,
2013-02-07 05:55:00,21.2,10.6,30.36,ENE,68,0.2,0.2,63,0.00,CLR,,0.00,WeatherDisplay:10.37,2013-02-07 10:55:00,
2013-02-07 06:00:00,21.2,10.6,30.36,ENE,68,0.0,0.0,63,0.00,CLR,,0.00,WeatherDisplay:10.37,2013-02-07 11:00:00,
2013-02-07 06:05:00,21.2,10.6,30.35,ENE,68,0.0,0.0,63,0.00,CLR,,0.00,WeatherDisplay:10.37,2013-02-07 11:05:00,
2013-02-07 06:10:00,21.6,10.9,30.36,ENE,68,1.1,1.1,63,0.00,CLR,,0.00,WeatherDisplay:10.37,2013-02-07 11:10:00,
2013-02-07 06:15:00,21.7,10.7,30.36,ENE,68,0.5,0.5,62,0.00,CLR,,0.00,WeatherDisplay:10.37,2013-02-07 11:15:00,
2013-02-07 06:20:00,21.9,10.9,30.36,ESE,112,0.0,0.0,62,0.00,CLR,,0.00,WeatherDisplay:10.37,2013-02-07 11:20:00,
2013-02-07 06:25:00,22.1,11.1,30.36,ENE,68,0.5,0.5,62,0.00,CLR,,0.00,WeatherDisplay:10.37,2013-02-07 11:25:00,
2013-02-07 06:30:00,22.3,10.9,30.36,ENE,68,0.0,0.0,61,0.00,CLR,,0.00,WeatherDisplay:10.37,2013-02-07 11:30:00,
2013-02-07 06:35:00,22.5,10.7,30.36,East,90,0.0,0.0,60,0.00,CLR,,0.00,WeatherDisplay:10.37,2013-02-07 11:35:00,
2013-02-07 06:40:00,22.6,10.8,30.37,ESE,112,0.0,0.0,60,0.00,CLR,,0.00,WeatherDisplay:10.37,2013-02-07 11:40:00,
2013-02-07 06:45:00,22.5,10.7,30.38,ENE,68,1.1,1.1,60,0.00,CLR,,0.00,WeatherDisplay:10.37,2013-02-07 11:45:00,
2013-02-07 06:50:00,22.6,10.8,30.38,ENE,68,0.2,0.2,60,0.00,CLR,,0.00,WeatherDisplay:10.37,2013-02-07 11:50:00,
2013-02-07 06:55:00,22.6,10.8,30.39,ENE,68,0.0,0.0,60,0.00,CLR,,0.00,WeatherDisplay:10.37,2013-02-07 11:55:00,
2013-02-07 07:00:00,22.6,10.8,30.39,ENE,68,0.0,0.0,60,0.00,CLR,,0.00,WeatherDisplay:10.37,2013-02-07 12:00:00,
2013-02-07 07:05:00,22.6,10.8,30.39,East,90,0.2,0.2,60,0.00,CLR,,0.00,WeatherDisplay:10.37,2013-02-07 12:05:00,
2013-02-07 07:10:00,22.6,10.8,30.40,ESE,112,1.1,1.1,60,0.00,CLR,,0.00,WeatherDisplay:10.37,2013-02-07 12:10:00,
2013-02-07 07:15:00,22.8,11.0,30.40,ENE,68,1.1,1.1,60,0.00,CLR,,0.00,WeatherDisplay:10.37,2013-02-07 12:15:00,
2013-02-07 07:20:00,22.8,11.0,30.40,ENE,68,0.0,0.0,60,0.00,CLR,,0.00,WeatherDisplay:10.37,2013-02-07 12:20:00,
2013-02-07 07:25:00,23.0,11.2,30.40,ENE,68,0.0,0.0,60,0.00,CLR,,0.00,WeatherDisplay:10.37,2013-02-07 12:25:00,
2013-02-07 07:30:00,23.0,11.2,30.41,North,0,0.2,0.2,60,0.00,CLR,,0.00,WeatherDisplay:10.37,2013-02-07 12:30:00,
2013-02-07 07:35:00,23.0,11.2,30.42,WNW,292,0.2,0.2,60,0.00,CLR,,0.00,WeatherDisplay:10.37,2013-02-07 12:35:00,
2013-02-07 07:40:00,23.2,11.3,30.42,NW,315,0.0,0.0,60,0.00,CLR,,0.00,WeatherDisplay:10.37,2013-02-07 12:40:00,
2013-02-07 07:45:00,23.4,11.5,30.42,West,270,0.0,0.0,60,0.00,CLR,,0.00,WeatherDisplay:10.37,2013-02-07 12:45:00,
2013-02-07 07:50:00,23.5,11.7,30.42,NNW,338,0.0,0.0,60,0.00,CLR,,0.00,WeatherDisplay:10.37,2013-02-07 12:50:00,
2013-02-07 07:55:00,23.9,12.0,30.43,ENE,68,0.0,0.0,60,0.00,CLR,,0.00,WeatherDisplay:10.37,2013-02-07 12:55:00,
2013-02-07 08:00:00,23.9,12.0,30.43,ENE,68,0.0,0.0,60,0.00,CLR,,0.00,WeatherDisplay:10.37,2013-02-07 13:00:00,
2013-02-07 08:05:00,24.1,11.8,30.43,ENE,68,0.2,0.2,59,0.00,CLR,,0.00,WeatherDisplay:10.37,2013-02-07 13:05:00,
2013-02-07 08:10:00,24.3,12.0,30.43,ENE,68,0.0,0.0,59,0.00,CLR,,0.00,WeatherDisplay:10.37,2013-02-07 13:10:00,
2013-02-07 08:15:00,24.4,12.1,30.43,NW,315,0.0,0.0,59,0.00,CLR,,0.00,WeatherDisplay:10.37,2013-02-07 13:15:00,
2013-02-07 08:21:00,24.6,11.9,30.44,East,90,1.1,1.1,58,0.00,CLR,,0.00,WeatherDisplay:10.37,2013-02-07 13:21:00,
2013-02-07 08:26:00,24.8,11.7,30.43,ENE,68,1.1,1.1,57,0.00,CLR,,0.00,WeatherDisplay:10.37,2013-02-07 13:26:00,
2013-02-07 08:31:00,24.8,11.7,30.43,ESE,112,1.1,1.1,57,0.00,CLR,,0.00,WeatherDisplay:10.37,2013-02-07 13:31:00,
2013-02-07 08:36:00,25.2,12.0,30.43,ESE,112,1.1,1.1,57,0.00,CLR,,0.00,WeatherDisplay:10.37,2013-02-07 13:36:00,
2013-02-07 08:41:00,25.2,11.6,30.44,ENE,68,1.1,1.1,56,0.00,CLR,,0.00,WeatherDisplay:10.37,2013-02-07 13:41:00,
2013-02-07 08:46:00,25.5,12.0,30.44,East,90,1.1,1.1,56,0.00,CLR,,0.00,WeatherDisplay:10.37,2013-02-07 13:46:00,
2013-02-07 08:51:00,25.5,11.6,30.43,North,0,1.6,1.6,55,0.00,CLR,,0.00,WeatherDisplay:10.37,2013-02-07 13:51:00,
2013-02-07 08:56:00,25.9,12.3,30.43,NE,45,0.5,0.5,56,0.00,CLR,,0.00,WeatherDisplay:10.37,2013-02-07 13:56:00,
2013-02-07 09:01:00,26.1,12.5,30.43,WSW,248,0.0,0.0,56,0.00,CLR,,0.00,WeatherDisplay:10.37,2013-02-07 14:01:00,
2013-02-07 09:06:00,26.2,12.2,30.43,ENE,68,1.1,1.1,55,0.00,CLR,,0.00,WeatherDisplay:10.37,2013-02-07 14:06:00,
2013-02-07 09:11:00,26.4,12.8,30.43,NE,45,0.0,0.0,56,0.00,CLR,,0.00,WeatherDisplay:10.37,2013-02-07 14:11:00,
2013-02-07 09:16:00,26.6,12.2,30.43,NNW,338,0.0,0.0,54,0.00,CLR,,0.00,WeatherDisplay:10.37,2013-02-07 14:16:00,
2013-02-07 09:21:00,26.8,12.3,30.43,NW,315,1.1,1.1,54,0.00,CLR,,0.00,WeatherDisplay:10.37,2013-02-07 14:21:00,
2013-02-07 09:26:00,27.0,12.5,30.43,NW,315,0.0,0.0,54,0.00,CLR,,0.00,WeatherDisplay:10.37,2013-02-07 14:26:00,
2013-02-07 09:31:00,27.3,13.3,30.43,East,90,1.1,1.1,55,0.00,CLR,,0.00,WeatherDisplay:10.37,2013-02-07 14:31:00,
2013-02-07 09:36:00,27.5,13.0,30.43,NE,45,1.1,0.0,54,0.00,CLR,,0.00,WeatherDisplay:10.37,2013-02-07 14:36:00,
2013-02-07 09:41:00,27.5,12.6,30.43,ENE,68,0.0,0.0,53,0.00,CLR,,0.00,WeatherDisplay:10.37,2013-02-07 14:41:00,
2013-02-07 09:46:00,27.7,12.3,30.43,ENE,68,0.7,0.7,52,0.00,CLR,,0.00,WeatherDisplay:10.37,2013-02-07 14:46:00,
2013-02-07 09:51:00,27.7,12.3,30.43,NE,45,0.5,0.5,52,0.00,CLR,,0.00,WeatherDisplay:10.37,2013-02-07 14:51:00,
2013-02-07 09:56:00,28.2,12.8,30.43,NNE,22,1.1,1.1,52,0.00,CLR,,0.00,WeatherDisplay:10.37,2013-02-07 14:56:00,
2013-02-07 10:01:00,28.6,13.6,30.43,NE,45,1.1,1.1,53,0.00,CLR,,0.00,WeatherDisplay:10.37,2013-02-07 15:01:00,
2013-02-07 10:06:00,28.9,13.9,30.44,NNW,338,0.0,0.0,53,0.00,CLR,,0.00,WeatherDisplay:10.37,2013-02-07 15:06:00,
2013-02-07 10:11:00,29.1,13.7,30.44,ENE,68,1.1,1.1,52,0.00,CLR,,0.00,WeatherDisplay:10.37,2013-02-07 15:11:00,
2013-02-07 10:16:00,29.1,13.7,30.44,NNW,338,0.0,0.5,52,0.00,CLR,,0.00,WeatherDisplay:10.37,2013-02-07 15:16:00,
2013-02-07 10:21:00,28.9,12.6,30.45,East,90,1.1,1.4,50,0.00,CLR,,0.00,WeatherDisplay:10.37,2013-02-07 15:21:00,
2013-02-07 10:26:00,28.9,12.6,30.45,NNE,22,1.1,1.1,50,0.00,CLR,,0.00,WeatherDisplay:10.37,2013-02-07 15:26:00,
2013-02-07 10:31:00,29.1,12.8,30.44,NE,45,1.1,1.1,50,0.00,CLR,,0.00,WeatherDisplay:10.37,2013-02-07 15:31:00,
2013-02-07 10:36:00,29.3,12.9,30.44,East,90,1.6,1.6,50,0.00,CLR,,0.00,WeatherDisplay:10.37,2013-02-07 15:36:00,
2013-02-07 10:41:00,29.5,12.6,30.44,ENE,68,1.8,1.8,49,0.00,CLR,,0.00,WeatherDisplay:10.37,2013-02-07 15:41:00,
2013-02-07 10:46:00,29.7,13.7,30.44,ENE,68,2.3,2.3,51,0.00,CLR,,0.00,WeatherDisplay:10.37,2013-02-07 15:46:00,
2013-02-07 10:51:00,29.8,13.4,30.44,ENE,68,1.1,1.1,50,0.00,CLR,,0.00,WeatherDisplay:10.37,2013-02-07 15:51:00,
2013-02-07 10:56:00,30.2,13.8,30.44,NNE,22,0.2,0.2,50,0.00,CLR,,0.00,WeatherDisplay:10.37,2013-02-07 15:56:00,
2013-02-07 11:01:00,30.2,13.3,30.44,ENE,68,2.4,2.4,49,0.00,CLR,,0.00,WeatherDisplay:10.37,2013-02-07 16:01:00,
2013-02-07 11:06:00,30.2,12.8,30.44,ENE,68,2.3,2.3,48,0.00,CLR,,0.00,WeatherDisplay:10.37,2013-02-07 16:06:00,
2013-02-07 11:11:00,30.2,12.8,30.44,NNE,22,1.1,1.1,48,0.00,CLR,,0.00,WeatherDisplay:10.37,2013-02-07 16:11:00,
2013-02-07 11:16:00,30.7,14.3,30.43,East,90,1.6,1.6,50,0.00,CLR,,0.00,WeatherDisplay:10.37,2013-02-07 16:16:00,
2013-02-07 11:21:00,31.3,14.8,30.42,ENE,68,2.3,2.3,50,0.00,CLR,,0.00,WeatherDisplay:10.37,2013-02-07 16:21:00,
2013-02-07 11:26:00,31.6,15.1,30.42,East,90,1.1,1.1,50,0.00,CLR,,0.00,WeatherDisplay:10.37,2013-02-07 16:26:00,
2013-02-07 11:31:00,31.3,11.9,30.42,ESE,112,1.4,1.4,44,0.00,CLR,,0.00,WeatherDisplay:10.37,2013-02-07 16:31:00,
2013-02-07 11:36:00,30.9,12.0,30.42,North,0,1.1,1.1,45,0.00,CLR,,0.00,WeatherDisplay:10.37,2013-02-07 16:36:00,
2013-02-07 11:41:00,30.6,11.7,30.42,ENE,68,1.1,1.1,45,0.00,CLR,,0.00,WeatherDisplay:10.37,2013-02-07 16:41:00,
2013-02-07 11:46:00,30.7,12.4,30.42,ENE,68,2.3,2.3,46,0.00,CLR,,0.00,WeatherDisplay:10.37,2013-02-07 16:46:00,
2013-02-07 11:51:00,30.9,12.0,30.41,North,0,1.1,1.1,45,0.00,CLR,,0.00,WeatherDisplay:10.37,2013-02-07 16:51:00,
2013-02-07 11:56:00,31.3,13.4,30.41,ENE,68,2.3,2.3,47,0.00,CLR,,0.00,WeatherDisplay:10.37,2013-02-07 16:56:00,
2013-02-07 12:01:00,31.5,12.5,30.41,ENE,68,1.1,0.0,45,0.00,CLR,,0.00,WeatherDisplay:10.37,2013-02-07 17:01:00,
2013-02-07 12:06:00,31.6,12.7,30.41,NNW,338,2.3,2.3,45,0.00,CLR,,0.00,WeatherDisplay:10.37,2013-02-07 17:06:00,
2013-02-07 12:11:00,31.8,13.4,30.41,NE,45,2.3,2.3,46,0.00,CLR,,0.00,WeatherDisplay:10.37,2013-02-07 17:11:00,
2013-02-07 12:16:00,32.0,13.0,30.41,NNW,338,1.1,1.1,45,0.00,CLR,,0.00,WeatherDisplay:10.37,2013-02-07 17:16:00,
2013-02-07 12:21:00,32.0,13.5,30.40,NNW,338,2.3,2.3,46,0.00,CLR,,0.00,WeatherDisplay:10.37,2013-02-07 17:21:00,
2013-02-07 12:26:00,32.4,12.8,30.40,NNW,338,1.1,1.1,44,0.00,CLR,,0.00,WeatherDisplay:10.37,2013-02-07 17:26:00,
2013-02-07 12:31:00,32.0,13.0,30.40,ENE,68,1.1,0.0,45,0.00,CLR,,0.00,WeatherDisplay:10.37,2013-02-07 17:31:00,
2013-02-07 12:36:00,32.5,14.0,30.39,NW,315,2.3,2.3,46,0.00,CLR,,0.00,WeatherDisplay:10.37,2013-02-07 17:36:00,
2013-02-07 12:41:00,32.4,12.8,30.39,NNW,338,1.1,1.1,44,0.00,CLR,,0.00,WeatherDisplay:10.37,2013-02-07 17:41:00,
2013-02-07 12:46:00,32.2,13.2,30.39,North,0,2.3,2.3,45,0.00,CLR,,0.00,WeatherDisplay:10.37,2013-02-07 17:46:00,
2013-02-07 12:51:00,32.2,13.2,30.40,NW,315,0.5,0.5,45,0.00,CLR,,0.00,WeatherDisplay:10.37,2013-02-07 17:51:00,
2013-02-07 12:56:00,32.7,13.7,30.40,North,0,2.0,2.0,45,0.00,CLR,,0.00,WeatherDisplay:10.37,2013-02-07 17:56:00,
2013-02-07 13:01:00,32.9,14.4,30.39,West,270,1.1,1.1,46,0.00,CLR,,0.00,WeatherDisplay:10.37,2013-02-07 18:01:00,
2013-02-07 13:06:00,33.1,14.0,30.39,East,90,1.1,1.1,45,0.00,CLR,,0.00,WeatherDisplay:10.37,2013-02-07 18:06:00,
2013-02-07 13:11:00,32.7,13.7,30.39,SE,135,1.1,0.0,45,0.00,CLR,,0.00,WeatherDisplay:10.37,2013-02-07 18:11:00,
2013-02-07 13:16:00,32.7,13.7,30.39,NE,45,0.5,0.5,45,0.00,CLR,,0.00,WeatherDisplay:10.37,2013-02-07 18:16:00,
2013-02-07 13:21:00,32.7,13.7,30.39,East,90,1.1,0.0,45,0.00,CLR,,0.00,WeatherDisplay:10.37,2013-02-07 18:21:00,
2013-02-07 13:26:00,32.7,13.7,30.38,North,0,1.1,1.1,45,0.00,CLR,,0.00,WeatherDisplay:10.37,2013-02-07 18:26:00,
2013-02-07 13:31:00,33.1,14.5,30.38,ENE,68,1.8,1.8,46,0.00,CLR,,0.00,WeatherDisplay:10.37,2013-02-07 18:31:00,
2013-02-07 13:36:00,33.4,14.8,30.38,South,180,1.1,1.1,46,0.00,CLR,,0.00,WeatherDisplay:10.37,2013-02-07 18:36:00,
2013-02-07 13:41:00,33.8,15.2,30.38,East,90,0.0,1.1,46,0.00,CLR,,0.00,WeatherDisplay:10.37,2013-02-07 18:41:00,
2013-02-07 13:46:00,34.0,14.8,30.38,NE,45,0.5,0.5,45,0.00,CLR,,0.00,WeatherDisplay:10.37,2013-02-07 18:46:00,
2013-02-07 13:51:00,34.2,15.0,30.38,NE,45,1.1,1.1,45,0.00,CLR,,0.00,WeatherDisplay:10.37,2013-02-07 18:51:00,
2013-02-07 13:56:00,34.0,14.3,30.38,ENE,68,1.1,0.0,44,0.00,CLR,,0.00,WeatherDisplay:10.37,2013-02-07 18:56:00,
2013-02-07 14:01:00,33.6,12.9,30.38,North,0,2.3,0.0,42,0.00,CLR,,0.00,WeatherDisplay:10.37,2013-02-07 19:01:00,
2013-02-07 14:06:00,33.6,14.5,30.37,ENE,68,1.1,1.1,45,0.00,CLR,,0.00,WeatherDisplay:10.37,2013-02-07 19:06:00,
2013-02-07 14:11:00,34.0,14.3,30.37,North,0,1.1,1.1,44,0.00,CLR,,0.00,WeatherDisplay:10.37,2013-02-07 19:11:00,
2013-02-07 14:16:00,34.0,14.8,30.37,SW,225,1.1,1.1,45,0.00,CLR,,0.00,WeatherDisplay:10.37,2013-02-07 19:16:00,
2013-02-07 14:21:00,34.3,15.2,30.37,East,90,1.1,1.1,45,0.00,CLR,,0.00,WeatherDisplay:10.37,2013-02-07 19:21:00,
2013-02-07 14:26:00,34.2,14.5,30.37,ENE,68,1.1,1.1,44,0.00,CLR,,0.00,WeatherDisplay:10.37,2013-02-07 19:26:00,
2013-02-07 14:31:00,34.2,14.5,30.37,East,90,1.1,0.0,44,0.00,CLR,,0.00,WeatherDisplay:10.37,2013-02-07 19:31:00,
2013-02-07 14:36:00,34.2,15.0,30.37,ENE,68,1.1,1.1,45,0.00,CLR,,0.00,WeatherDisplay:10.37,2013-02-07 19:36:00,
2013-02-07 14:41:00,34.3,15.2,30.37,ESE,112,1.1,1.1,45,0.00,CLR,,0.00,WeatherDisplay:10.37,2013-02-07 19:41:00,
2013-02-07 14:46:00,34.5,14.8,30.37,ENE,68,2.2,2.2,44,0.00,CLR,,0.00,WeatherDisplay:10.37,2013-02-07 19:46:00,
2013-02-07 14:51:00,34.2,14.5,30.37,SSE,158,1.1,1.1,44,0.00,CLR,,0.00,WeatherDisplay:10.37,2013-02-07 19:51:00,
2013-02-07 14:56:00,34.2,14.5,30.37,SSE,158,1.1,1.1,44,0.00,CLR,,0.00,WeatherDisplay:10.37,2013-02-07 19:56:00,
2013-02-07 15:01:00,34.0,14.3,30.37,ENE,68,2.3,2.3,44,0.00,CLR,,0.00,WeatherDisplay:10.37,2013-02-07 20:01:00,
2013-02-07 15:06:00,33.8,14.2,30.37,ESE,112,1.1,1.1,44,0.00,CLR,,0.00,WeatherDisplay:10.37,2013-02-07 20:06:00,
2013-02-07 15:11:00,33.8,14.2,30.37,ENE,68,1.1,1.1,44,0.00,CLR,,0.00,WeatherDisplay:10.37,2013-02-07 20:11:00,
2013-02-07 15:16:00,33.8,14.7,30.36,ENE,68,2.3,2.3,45,0.00,CLR,,0.00,WeatherDisplay:10.37,2013-02-07 20:16:00,
2013-02-07 15:21:00,33.8,14.7,30.37,ESE,112,1.1,1.1,45,0.00,CLR,,0.00,WeatherDisplay:10.37,2013-02-07 20:21:00,
2013-02-07 15:26:00,34.0,14.3,30.36,ESE,112,1.1,1.1,44,0.00,CLR,,0.00,WeatherDisplay:10.37,2013-02-07 20:26:00,
2013-02-07 15:31:00,34.0,14.3,30.36,NE,45,1.1,1.1,44,0.00,CLR,,0.00,WeatherDisplay:10.37,2013-02-07 20:31:00,
2013-02-07 15:36:00,34.0,14.3,30.36,East,90,1.1,1.1,44,0.00,CLR,,0.00,WeatherDisplay:10.37,2013-02-07 20:36:00,
2013-02-07 15:41:00,33.8,14.2,30.36,WSW,248,0.0,0.0,44,0.00,CLR,,0.00,WeatherDisplay:10.37,2013-02-07 20:41:00,
2013-02-07 15:46:00,33.4,13.3,30.35,ENE,68,3.5,3.5,43,0.00,CLR,,0.00,WeatherDisplay:10.37,2013-02-07 20:46:00,
2013-02-07 15:51:00,33.1,13.0,30.35,East,90,1.1,1.1,43,0.00,CLR,,0.00,WeatherDisplay:10.37,2013-02-07 20:51:00,
2013-02-07 15:56:00,33.3,13.1,30.36,North,0,0.0,0.0,43,0.00,CLR,,0.00,WeatherDisplay:10.37,2013-02-07 20:56:00,
2013-02-07 16:01:00,33.4,13.3,30.36,SSE,158,1.1,1.1,43,0.00,CLR,,0.00,WeatherDisplay:10.37,2013-02-07 21:01:00,
2013-02-07 16:06:00,33.4,13.3,30.35,ESE,112,1.1,1.1,43,0.00,CLR,,0.00,WeatherDisplay:10.37,2013-02-07 21:06:00,
2013-02-07 16:11:00,33.3,13.1,30.35,East,90,2.3,2.3,43,0.00,CLR,,0.00,WeatherDisplay:10.37,2013-02-07 21:11:00,
2013-02-07 16:16:00,33.1,13.0,30.35,ESE,112,1.1,1.1,43,0.00,CLR,,0.00,WeatherDisplay:10.37,2013-02-07 21:16:00,
2013-02-07 16:21:00,32.9,12.8,30.35,NE,45,1.1,1.1,43,0.00,CLR,,0.00,WeatherDisplay:10.37,2013-02-07 21:21:00,
2013-02-07 16:26:00,32.9,12.8,30.35,East,90,1.1,1.6,43,0.00,CLR,,0.00,WeatherDisplay:10.37,2013-02-07 21:26:00,
2013-02-07 16:31:00,32.5,12.5,30.34,East,90,2.3,2.3,43,0.00,CLR,,0.00,WeatherDisplay:10.37,2013-02-07 21:31:00,
2013-02-07 16:36:00,32.4,12.3,30.34,South,180,2.3,2.3,43,0.00,CLR,,0.00,WeatherDisplay:10.37,2013-02-07 21:36:00,
2013-02-07 16:41:00,32.4,12.3,30.34,SE,135,1.1,1.1,43,0.00,CLR,,0.00,WeatherDisplay:10.37,2013-02-07 21:41:00,
2013-02-07 16:46:00,32.2,12.7,30.34,SE,135,2.3,2.3,44,0.00,CLR,,0.00,WeatherDisplay:10.37,2013-02-07 21:46:00,
2013-02-07 16:51:00,32.0,12.5,30.34,East,90,1.1,0.0,44,0.00,CLR,,0.00,WeatherDisplay:10.37,2013-02-07 21:51:00,
2013-02-07 16:56:00,31.8,12.4,30.34,NNW,338,1.1,1.1,44,0.00,CLR,,0.00,WeatherDisplay:10.37,2013-02-07 21:56:00,
2013-02-07 17:01:00,31.8,12.4,30.34,East,90,0.0,0.0,44,0.00,CLR,,0.00,WeatherDisplay:10.37,2013-02-07 22:01:00,
2013-02-07 17:06:00,31.6,12.2,30.34,East,90,0.2,0.2,44,0.00,CLR,,0.00,WeatherDisplay:10.37,2013-02-07 22:06:00,
2013-02-07 17:11:00,31.5,12.5,30.34,ENE,68,0.0,0.0,45,0.00,CLR,,0.00,WeatherDisplay:10.37,2013-02-07 22:11:00,
2013-02-07 17:16:00,31.3,12.4,30.34,East,90,1.1,1.1,45,0.00,CLR,,0.00,WeatherDisplay:10.37,2013-02-07 22:16:00,
2013-02-07 17:21:00,31.3,12.4,30.34,ENE,68,1.1,1.1,45,0.00,CLR,,0.00,WeatherDisplay:10.37,2013-02-07 22:21:00,
2013-02-07 17:26:00,30.9,12.0,30.34,ESE,112,0.0,0.0,45,0.00,CLR,,0.00,WeatherDisplay:10.37,2013-02-07 22:26:00,
2013-02-07 17:31:00,30.7,11.9,30.34,ENE,68,0.0,0.0,45,0.00,CLR,,0.00,WeatherDisplay:10.37,2013-02-07 22:31:00,
2013-02-07 17:36:00,30.6,12.2,30.34,North,0,0.5,0.5,46,0.00,CLR,,0.00,WeatherDisplay:10.37,2013-02-07 22:36:00,
2013-02-07 17:41:00,30.4,12.0,30.34,ENE,68,1.1,1.1,46,0.00,CLR,,0.00,WeatherDisplay:10.37,2013-02-07 22:41:00,
2013-02-07 17:46:00,30.2,12.4,30.34,East,90,0.5,0.5,47,0.00,CLR,,0.00,WeatherDisplay:10.37,2013-02-07 22:46:00,
2013-02-07 17:51:00,30.0,12.2,30.34,East,90,1.1,1.1,47,0.00,CLR,,0.00,WeatherDisplay:10.37,2013-02-07 22:51:00,
2013-02-07 17:56:00,29.8,12.0,30.34,NE,45,0.0,0.0,47,0.00,CLR,,0.00,WeatherDisplay:10.37,2013-02-07 22:56:00,
2013-02-07 18:01:00,29.7,11.9,30.34,East,90,0.2,0.2,47,0.00,CLR,,0.00,WeatherDisplay:10.37,2013-02-07 23:01:00,
2013-02-07 18:06:00,29.5,12.2,30.34,East,90,0.2,0.2,48,0.00,CLR,,0.00,WeatherDisplay:10.37,2013-02-07 23:06:00,
2013-02-07 18:11:00,29.5,12.2,30.35,East,90,0.0,0.0,48,0.00,CLR,,0.00,WeatherDisplay:10.37,2013-02-07 23:11:00,
2013-02-07 18:16:00,29.3,12.0,30.35,ENE,68,0.7,0.7,48,0.00,CLR,,0.00,WeatherDisplay:10.37,2013-02-07 23:16:00,
2013-02-07 18:21:00,29.3,12.0,30.35,NE,45,1.1,1.1,48,0.00,CLR,,0.00,WeatherDisplay:10.37,2013-02-07 23:21:00,
2013-02-07 18:26:00,29.1,12.3,30.35,ENE,68,0.0,0.0,49,0.00,CLR,,0.00,WeatherDisplay:10.37,2013-02-07 23:26:00,
2013-02-07 18:31:00,29.1,12.3,30.34,ENE,68,0.0,0.0,49,0.00,CLR,,0.00,WeatherDisplay:10.37,2013-02-07 23:31:00,
2013-02-07 18:36:00,28.9,12.1,30.35,ENE,68,1.1,0.0,49,0.00,CLR,,0.00,WeatherDisplay:10.37,2013-02-07 23:36:00,
2013-02-07 18:41:00,28.6,12.3,30.35,ENE,68,0.0,0.0,50,0.00,CLR,,0.00,WeatherDisplay:10.37,2013-02-07 23:41:00,
2013-02-07 18:46:00,28.4,12.1,30.35,East,90,0.0,0.0,50,0.00,CLR,,0.00,WeatherDisplay:10.37,2013-02-07 23:46:00,
2013-02-07 18:51:00,28.4,12.1,30.35,East,90,0.0,0.2,50,0.00,CLR,,0.00,WeatherDisplay:10.37,2013-02-07 23:51:00,
2013-02-07 18:56:00,28.4,12.1,30.36,East,90,0.0,0.0,50,0.00,CLR,,0.00,WeatherDisplay:10.37,2013-02-07 23:56:00,
2013-02-07 19:01:00,28.2,11.9,30.36,East,90,0.0,0.0,50,0.00,CLR,,0.00,WeatherDisplay:10.37,2013-02-08 00:01:00,
2013-02-07 19:06:00,28.0,12.2,30.36,East,90,0.0,0.0,51,0.00,CLR,,0.00,WeatherDisplay:10.37,2013-02-08 00:06:00,
2013-02-07 19:11:00,27.9,12.5,30.36,ENE,68,0.0,0.0,52,0.00,CLR,,0.00,WeatherDisplay:10.37,2013-02-08 00:11:00,
2013-02-07 19:16:00,27.9,12.5,30.36,ENE,68,0.0,0.0,52,0.00,CLR,,0.00,WeatherDisplay:10.37,2013-02-08 00:16:00,
2013-02-07 19:21:00,27.7,12.3,30.36,NE,45,0.2,0.2,52,0.00,CLR,,0.00,WeatherDisplay:10.37,2013-02-08 00:21:00,
2013-02-07 19:26:00,27.9,12.9,30.36,ENE,68,0.0,0.0,53,0.00,CLR,,0.00,WeatherDisplay:10.37,2013-02-08 00:26:00,
2013-02-07 19:31:00,27.7,12.8,30.36,ENE,68,0.0,0.0,53,0.00,CLR,,0.00,WeatherDisplay:10.37,2013-02-08 00:31:00,
2013-02-07 19:36:00,27.7,13.2,30.36,ENE,68,0.0,0.0,54,0.00,CLR,,0.00,WeatherDisplay:10.37,2013-02-08 00:36:00,
2013-02-07 19:41:00,27.9,13.3,30.35,ENE,68,0.0,0.0,54,0.00,CLR,,0.00,WeatherDisplay:10.37,2013-02-08 00:41:00,
2013-02-07 19:46:00,27.9,13.3,30.35,ENE,68,0.0,0.0,54,0.00,CLR,,0.00,WeatherDisplay:10.37,2013-02-08 00:46:00,
2013-02-07 19:51:00,27.7,13.6,30.35,ENE,68,0.0,0.0,55,0.00,CLR,,0.00,WeatherDisplay:10.37,2013-02-08 00:51:00,
2013-02-07 19:56:00,27.5,13.4,30.35,ENE,68,0.0,0.0,55,0.00,CLR,,0.00,WeatherDisplay:10.37,2013-02-08 00:56:00,
2013-02-07 20:01:00,27.7,14.0,30.35,ENE,68,0.0,0.0,56,0.00,CLR,,0.00,WeatherDisplay:10.37,2013-02-08 01:01:00,
2013-02-07 20:06:00,27.5,13.8,30.35,ENE,68,0.0,0.0,56,0.00,CLR,,0.00,WeatherDisplay:10.37,2013-02-08 01:06:00,
2013-02-07 20:11:00,27.3,13.7,30.35,ENE,68,0.0,0.0,56,0.00,CLR,,0.00,WeatherDisplay:10.37,2013-02-08 01:11:00,
2013-02-07 20:16:00,27.1,13.5,30.35,ENE,68,0.0,0.0,56,0.00,CLR,,0.00,WeatherDisplay:10.37,2013-02-08 01:16:00,
2013-02-07 20:21:00,27.0,13.7,30.35,ENE,68,0.0,0.0,57,0.00,CLR,,0.00,WeatherDisplay:10.37,2013-02-08 01:21:00,
2013-02-07 20:26:00,27.0,13.7,30.35,ENE,68,0.0,0.0,57,0.00,CLR,,0.00,WeatherDisplay:10.37,2013-02-08 01:26:00,
2013-02-07 20:31:00,27.1,14.3,30.35,ENE,68,0.0,0.0,58,0.00,CLR,,0.00,WeatherDisplay:10.37,2013-02-08 01:31:00,
2013-02-07 20:36:00,27.1,14.3,30.35,ENE,68,0.0,0.0,58,0.00,CLR,,0.00,WeatherDisplay:10.37,2013-02-08 01:36:00,
2013-02-07 20:41:00,27.3,14.5,30.35,ENE,68,0.0,0.0,58,0.00,CLR,,0.00,WeatherDisplay:10.37,2013-02-08 01:41:00,
2013-02-07 20:46:00,27.5,14.6,30.35,ENE,68,0.2,0.2,58,0.00,CLR,,0.00,WeatherDisplay:10.37,2013-02-08 01:46:00,
2013-02-07 20:51:00,27.7,15.2,30.35,ENE,68,0.0,0.5,59,0.00,CLR,,0.00,WeatherDisplay:10.37,2013-02-08 01:51:00,
2013-02-07 20:56:00,27.7,15.2,30.35,ENE,68,0.0,0.0,59,0.00,CLR,,0.00,WeatherDisplay:10.37,2013-02-08 01:56:00,
2013-02-07 21:01:00,27.7,15.2,30.35,ESE,112,0.5,0.5,59,0.00,CLR,,0.00,WeatherDisplay:10.37,2013-02-08 02:01:00,
2013-02-07 21:06:00,27.5,15.0,30.34,East,90,0.0,0.0,59,0.00,CLR,,0.00,WeatherDisplay:10.37,2013-02-08 02:06:00,
2013-02-07 21:11:00,27.7,15.6,30.34,East,90,1.1,1.1,60,0.00,CLR,,0.00,WeatherDisplay:10.37,2013-02-08 02:11:00,
2013-02-07 21:16:00,27.7,15.2,30.34,East,90,0.0,0.0,59,0.00,CLR,,0.00,WeatherDisplay:10.37,2013-02-08 02:16:00,
2013-02-07 21:21:00,27.5,15.0,30.34,East,90,0.0,0.0,59,0.00,CLR,,0.00,WeatherDisplay:10.37,2013-02-08 02:21:00,
2013-02-07 21:26:00,27.7,15.6,30.34,East,90,0.0,0.0,60,0.00,CLR,,0.00,WeatherDisplay:10.37,2013-02-08 02:26:00,
2013-02-07 21:31:00,27.7,15.6,30.34,East,90,0.0,0.0,60,0.00,CLR,,0.00,WeatherDisplay:10.37,2013-02-08 02:31:00,
2013-02-07 21:36:00,27.7,15.6,30.34,NE,45,0.0,0.0,60,0.00,CLR,,0.00,WeatherDisplay:10.37,2013-02-08 02:36:00,
2013-02-07 21:41:00,27.7,15.6,30.34,ENE,68,0.2,0.2,60,0.00,CLR,,0.00,WeatherDisplay:10.37,2013-02-08 02:41:00,
2013-02-07 21:46:00,27.7,15.6,30.34,ENE,68,0.0,0.0,60,0.00,CLR,,0.00,WeatherDisplay:10.37,2013-02-08 02:46:00,
2013-02-07 21:51:00,27.5,15.4,30.34,ENE,68,0.2,0.2,60,0.00,CLR,,0.00,WeatherDisplay:10.37,2013-02-08 02:51:00,
2013-02-07 21:56:00,27.7,16.0,30.33,ENE,68,0.0,0.0,61,0.00,CLR,,0.00,WeatherDisplay:10.37,2013-02-08 02:56:00,
2013-02-07 22:01:00,27.7,15.6,30.33,ENE,68,0.0,0.0,60,0.00,CLR,,0.00,WeatherDisplay:10.37,2013-02-08 03:01:00,
2013-02-07 22:06:00,27.7,16.3,30.33,North,0,0.2,0.2,62,0.00,CLR,,0.00,WeatherDisplay:10.37,2013-02-08 03:06:00,
2013-02-07 22:11:00,28.0,16.7,30.32,North,0,0.0,0.0,62,0.00,CLR,,0.00,WeatherDisplay:10.37,2013-02-08 03:11:00,
2013-02-07 22:16:00,28.0,16.7,30.32,NNW,338,0.0,0.0,62,0.00,CLR,,0.00,WeatherDisplay:10.37,2013-02-08 03:16:00,
2013-02-07 22:21:00,28.2,16.9,30.32,NE,45,0.5,0.5,62,0.00,CLR,,0.00,WeatherDisplay:10.37,2013-02-08 03:21:00,
2013-02-07 22:26:00,28.2,16.9,30.32,ENE,68,0.0,0.0,62,0.00,CLR,,0.00,WeatherDisplay:10.37,2013-02-08 03:26:00,
2013-02-07 22:31:00,28.2,16.9,30.31,ESE,112,0.0,0.0,62,0.00,CLR,,0.00,WeatherDisplay:10.37,2013-02-08 03:31:00,
2013-02-07 22:36:00,28.2,16.9,30.31,ENE,68,0.0,0.0,62,0.00,CLR,,0.00,WeatherDisplay:10.37,2013-02-08 03:36:00,
2013-02-07 22:41:00,28.2,16.9,30.31,ENE,68,0.0,0.0,62,0.00,CLR,,0.00,WeatherDisplay:10.37,2013-02-08 03:41:00,
2013-02-07 22:46:00,28.4,17.0,30.31,WNW,292,0.0,0.0,62,0.00,CLR,,0.00,WeatherDisplay:10.37,2013-02-08 03:46:00,
2013-02-07 22:51:00,28.4,17.0,30.31,WNW,292,0.0,0.0,62,0.00,CLR,,0.00,WeatherDisplay:10.37,2013-02-08 03:51:00,
2013-02-07 22:56:00,28.8,17.7,30.30,South,180,0.0,0.5,63,0.00,CLR,,0.00,WeatherDisplay:10.37,2013-02-08 03:56:00,
2013-02-07 23:01:00,28.8,17.7,30.30,NE,45,0.0,0.0,63,0.00,CLR,,0.00,WeatherDisplay:10.37,2013-02-08 04:01:00,
2013-02-07 23:06:00,28.9,17.5,30.29,NE,45,1.1,1.1,62,0.00,CLR,,0.00,WeatherDisplay:10.37,2013-02-08 04:06:00,
2013-02-07 23:11:00,29.1,18.5,30.29,ENE,68,2.3,2.3,64,0.00,CLR,,0.00,WeatherDisplay:10.37,2013-02-08 04:11:00,
2013-02-07 23:16:00,29.7,19.3,30.28,East,90,1.1,1.6,65,0.00,CLR,,0.00,WeatherDisplay:10.37,2013-02-08 04:16:00,
2013-02-07 23:21:00,30.0,19.7,30.28,NE,45,1.1,1.1,65,0.00,CLR,,0.00,WeatherDisplay:10.37,2013-02-08 04:21:00,
2013-02-07 23:26:00,30.4,20.4,30.28,NNE,22,1.1,1.1,66,0.00,CLR,,0.00,WeatherDisplay:10.37,2013-02-08 04:26:00,
2013-02-07 23:31:00,30.6,20.5,30.28,ENE,68,0.5,0.5,66,0.00,CLR,,0.00,WeatherDisplay:10.37,2013-02-08 04:31:00,
2013-02-07 23:36:00,30.6,20.5,30.27,ENE,68,0.7,0.7,66,0.00,CLR,,0.00,WeatherDisplay:10.37,2013-02-08 04:36:00,
2013-02-07 23:41:00,30.7,20.7,30.27,ENE,68,1.1,1.1,66,0.00,CLR,,0.00,WeatherDisplay:10.37,2013-02-08 04:41:00,
2013-02-07 23:46:00,30.9,21.2,30.27,ENE,68,1.1,1.1,67,0.00,CLR,,0.00,WeatherDisplay:10.37,2013-02-08 04:46:00,
2013-02-07 23:51:00,31.1,21.1,30.27,ENE,68,1.1,0.0,66,0.00,CLR,,0.00,WeatherDisplay:10.37,2013-02-08 04:51:00,
2013-02-07 23:56:00,31.3,21.2,30.27,NE,45,1.1,1.1,66,0.00,CLR,,0.00,WeatherDisplay:10.37,2013-02-08 04:56:00,